EWG255 ENBR-ENBO
Flight info
| Callsign | EWG255 |
|---|---|
| Flight time | 1h 23m |
| Altitude | 37000 |
| Route | INTUM DCT ODNOS |
| Aircraft | A320/M-SDE3FGHIRWY/LB1 |
Departure
| Time | 2026-04-26 10:19 |
|---|---|
| Airport | Bergen Airport, Flesland (ENBR) |
Arrival
| Time | 2026-04-26 11:42 |
|---|---|
| Airport | Bodø Airport (ENBO) |
| Time | Latitude | Longitude | Altitude | Speed | Heading |
|---|---|---|---|---|---|
| 2026-04-26 09:49 | 60.28741 | 5.22905 | 176 ft | 0 kts | 81° |
| 2026-04-26 10:10 | 60.28739 | 5.22878 | 176 ft | 2 kts | 81° |
| 2026-04-26 10:10 | 60.28736 | 5.22846 | 175 ft | 2 kts | 81° |
| 2026-04-26 10:11 | 60.28734 | 5.22818 | 175 ft | 1 kts | 81° |
| 2026-04-26 10:11 | 60.28734 | 5.22815 | 175 ft | 0 kts | 81° |
| 2026-04-26 10:14 | 60.28732 | 5.22820 | 175 ft | 1 kts | 100° |
| 2026-04-26 10:15 | 60.28691 | 5.22792 | 173 ft | 11 kts | 237° |
| 2026-04-26 10:15 | 60.28674 | 5.22628 | 172 ft | 13 kts | 262° |
| 2026-04-26 10:15 | 60.28658 | 5.22448 | 169 ft | 12 kts | 266° |
| 2026-04-26 10:15 | 60.28589 | 5.22387 | 166 ft | 13 kts | 171° |
| 2026-04-26 10:16 | 60.28498 | 5.22421 | 164 ft | 14 kts | 170° |
| 2026-04-26 10:16 | 60.28402 | 5.22451 | 161 ft | 14 kts | 172° |
| 2026-04-26 10:16 | 60.28302 | 5.22484 | 158 ft | 15 kts | 170° |
| 2026-04-26 10:16 | 60.28196 | 5.22519 | 155 ft | 16 kts | 171° |
| 2026-04-26 10:17 | 60.28084 | 5.22533 | 152 ft | 15 kts | 202° |
| 2026-04-26 10:17 | 60.28050 | 5.22363 | 153 ft | 13 kts | 264° |
| 2026-04-26 10:17 | 60.28081 | 5.22237 | 153 ft | 0 kts | 347° |
| 2026-04-26 10:18 | 60.28082 | 5.22237 | 153 ft | 1 kts | 347° |
| 2026-04-26 10:18 | 60.28160 | 5.22210 | 153 ft | 41 kts | 350° |
| 2026-04-26 10:19 | 60.28689 | 5.22033 | 162 ft | 109 kts | 351° |
| 2026-04-26 10:19 | 60.29620 | 5.21731 | 220 ft | 155 kts | 352° |
| 2026-04-26 10:19 | 60.30691 | 5.21378 | 919 ft | 157 kts | 351° |
| 2026-04-26 10:19 | 60.31775 | 5.21002 | 1664 ft | 164 kts | 349° |
| 2026-04-26 10:20 | 60.32974 | 5.20596 | 2048 ft | 185 kts | 350° |
| 2026-04-26 10:20 | 60.33847 | 5.20313 | 2364 ft | 200 kts | 351° |
| 2026-04-26 10:20 | 60.35835 | 5.19654 | 3014 ft | 232 kts | 351° |
| 2026-04-26 10:20 | 60.37479 | 5.19093 | 3821 ft | 244 kts | 351° |
| 2026-04-26 10:21 | 60.39167 | 5.18515 | 4815 ft | 248 kts | 350° |
| 2026-04-26 10:21 | 60.40883 | 5.17930 | 5757 ft | 252 kts | 349° |
| 2026-04-26 10:21 | 60.42624 | 5.17337 | 6718 ft | 255 kts | 348° |
| 2026-04-26 10:21 | 60.44379 | 5.16737 | 7671 ft | 257 kts | 348° |
| 2026-04-26 10:22 | 60.46148 | 5.16138 | 8580 ft | 259 kts | 348° |
| 2026-04-26 10:22 | 60.47959 | 5.15754 | 9479 ft | 265 kts | 358° |
| 2026-04-26 10:22 | 60.49798 | 5.16409 | 10346 ft | 274 kts | 15° |
| 2026-04-26 10:22 | 60.51554 | 5.18233 | 10818 ft | 298 kts | 30° |
| 2026-04-26 10:23 | 60.53317 | 5.20756 | 11099 ft | 322 kts | 31° |
| 2026-04-26 10:23 | 60.55178 | 5.23445 | 11637 ft | 333 kts | 31° |
| 2026-04-26 10:23 | 60.57077 | 5.26214 | 12348 ft | 339 kts | 31° |
| 2026-04-26 10:23 | 60.59004 | 5.29030 | 13092 ft | 343 kts | 31° |
| 2026-04-26 10:24 | 60.60958 | 5.31879 | 13822 ft | 348 kts | 31° |
| 2026-04-26 10:24 | 60.62941 | 5.34762 | 14465 ft | 352 kts | 31° |
| 2026-04-26 10:24 | 60.64951 | 5.37680 | 15115 ft | 356 kts | 31° |
| 2026-04-26 10:24 | 60.66974 | 5.40614 | 15814 ft | 359 kts | 31° |
| 2026-04-26 10:25 | 60.69015 | 5.43583 | 16462 ft | 363 kts | 31° |
| 2026-04-26 10:25 | 60.71081 | 5.46594 | 17107 ft | 367 kts | 30° |
| 2026-04-26 10:25 | 60.73164 | 5.49634 | 17789 ft | 369 kts | 30° |
| 2026-04-26 10:25 | 60.75265 | 5.52703 | 18381 ft | 373 kts | 30° |
| 2026-04-26 10:26 | 60.77384 | 5.55808 | 18937 ft | 377 kts | 30° |
| 2026-04-26 10:26 | 60.79522 | 5.58942 | 19446 ft | 380 kts | 30° |
| 2026-04-26 10:26 | 60.81653 | 5.62069 | 19939 ft | 383 kts | 30° |
| 2026-04-26 10:26 | 60.83828 | 5.65272 | 20447 ft | 387 kts | 30° |
| 2026-04-26 10:27 | 60.86022 | 5.68512 | 20962 ft | 390 kts | 30° |
| 2026-04-26 10:27 | 60.88231 | 5.71776 | 21263 ft | 392 kts | 30° |
| 2026-04-26 10:27 | 60.90450 | 5.75064 | 21310 ft | 393 kts | 30° |
| 2026-04-26 10:27 | 60.92659 | 5.78343 | 21318 ft | 392 kts | 29° |
| 2026-04-26 10:28 | 60.94865 | 5.81626 | 21294 ft | 391 kts | 29° |
| 2026-04-26 10:28 | 60.97081 | 5.84876 | 21296 ft | 389 kts | 26° |
| 2026-04-26 10:28 | 60.99396 | 5.87693 | 21298 ft | 386 kts | 23° |
| 2026-04-26 10:28 | 61.01726 | 5.90471 | 21299 ft | 387 kts | 24° |
| 2026-04-26 10:29 | 61.04050 | 5.93245 | 21297 ft | 386 kts | 24° |
| 2026-04-26 10:29 | 61.06379 | 5.96021 | 21297 ft | 386 kts | 23° |
| 2026-04-26 10:29 | 61.08708 | 5.98802 | 21303 ft | 387 kts | 24° |
| 2026-04-26 10:29 | 61.11038 | 6.01592 | 21304 ft | 387 kts | 24° |
| 2026-04-26 10:30 | 61.13364 | 6.04384 | 21302 ft | 387 kts | 24° |
| 2026-04-26 10:30 | 61.15690 | 6.07184 | 21301 ft | 386 kts | 24° |
| 2026-04-26 10:30 | 61.18016 | 6.09990 | 21304 ft | 387 kts | 24° |
| 2026-04-26 10:30 | 61.20339 | 6.12801 | 21320 ft | 387 kts | 23° |
| 2026-04-26 10:31 | 61.22658 | 6.15615 | 21295 ft | 385 kts | 23° |
| 2026-04-26 10:31 | 61.24969 | 6.18420 | 21292 ft | 385 kts | 23° |
| 2026-04-26 10:31 | 61.27276 | 6.21223 | 21295 ft | 384 kts | 23° |
| 2026-04-26 10:31 | 61.29580 | 6.24019 | 21300 ft | 384 kts | 23° |
| 2026-04-26 10:32 | 61.31891 | 6.26824 | 21291 ft | 384 kts | 23° |
| 2026-04-26 10:32 | 61.34194 | 6.29633 | 21290 ft | 384 kts | 23° |
| 2026-04-26 10:32 | 61.36502 | 6.32458 | 21296 ft | 384 kts | 23° |
| 2026-04-26 10:32 | 61.38810 | 6.35283 | 21300 ft | 384 kts | 23° |
| 2026-04-26 10:33 | 61.41116 | 6.38109 | 21292 ft | 384 kts | 23° |
| 2026-04-26 10:33 | 61.43420 | 6.40947 | 21300 ft | 384 kts | 24° |
| 2026-04-26 10:33 | 61.45724 | 6.43788 | 21297 ft | 384 kts | 24° |
| 2026-04-26 10:33 | 61.48025 | 6.46626 | 21286 ft | 384 kts | 24° |
| 2026-04-26 10:34 | 61.50327 | 6.49463 | 21295 ft | 384 kts | 23° |
| 2026-04-26 10:34 | 61.52634 | 6.52306 | 21297 ft | 385 kts | 23° |
| 2026-04-26 10:34 | 61.54925 | 6.55136 | 21741 ft | 388 kts | 23° |
| 2026-04-26 10:34 | 61.57256 | 6.58031 | 22275 ft | 391 kts | 23° |
| 2026-04-26 10:35 | 61.59606 | 6.60957 | 22793 ft | 394 kts | 23° |
| 2026-04-26 10:35 | 61.61977 | 6.63914 | 23268 ft | 398 kts | 23° |
| 2026-04-26 10:35 | 61.64368 | 6.66901 | 23757 ft | 402 kts | 23° |
| 2026-04-26 10:35 | 61.66785 | 6.69928 | 24194 ft | 405 kts | 23° |
| 2026-04-26 10:36 | 61.69207 | 6.72968 | 24597 ft | 407 kts | 23° |
| 2026-04-26 10:36 | 61.71648 | 6.76037 | 25008 ft | 409 kts | 24° |
| 2026-04-26 10:36 | 61.74093 | 6.79116 | 25395 ft | 410 kts | 24° |
| 2026-04-26 10:36 | 61.76547 | 6.82214 | 25841 ft | 412 kts | 23° |
| 2026-04-26 10:37 | 61.79009 | 6.85327 | 26288 ft | 413 kts | 24° |
| 2026-04-26 10:37 | 61.81479 | 6.88459 | 26723 ft | 415 kts | 24° |
| 2026-04-26 10:37 | 61.83962 | 6.91610 | 27111 ft | 417 kts | 24° |
| 2026-04-26 10:37 | 61.86341 | 6.94627 | 27470 ft | 419 kts | 24° |
| 2026-04-26 10:38 | 61.88922 | 6.97899 | 27892 ft | 421 kts | 24° |
| 2026-04-26 10:38 | 61.91444 | 7.01100 | 28232 ft | 424 kts | 24° |
| 2026-04-26 10:38 | 61.93974 | 7.04326 | 28603 ft | 426 kts | 24° |
| 2026-04-26 10:38 | 61.96515 | 7.07584 | 28987 ft | 428 kts | 24° |
| 2026-04-26 10:39 | 61.98209 | 7.09761 | 29235 ft | 429 kts | 24° |
| 2026-04-26 10:39 | 62.00769 | 7.13056 | 29555 ft | 431 kts | 24° |
| 2026-04-26 10:39 | 62.03339 | 7.16363 | 29866 ft | 433 kts | 24° |
| 2026-04-26 10:39 | 62.05920 | 7.19686 | 30226 ft | 435 kts | 24° |
| 2026-04-26 10:40 | 62.08520 | 7.23041 | 30561 ft | 437 kts | 24° |
| 2026-04-26 10:40 | 62.11121 | 7.26412 | 30884 ft | 438 kts | 24° |
| 2026-04-26 10:40 | 62.13730 | 7.29802 | 31154 ft | 439 kts | 24° |
| 2026-04-26 10:40 | 62.16341 | 7.33194 | 31461 ft | 439 kts | 25° |
| 2026-04-26 10:41 | 62.18946 | 7.36588 | 31876 ft | 438 kts | 25° |
| 2026-04-26 10:41 | 62.21548 | 7.39984 | 32304 ft | 437 kts | 25° |
| 2026-04-26 10:41 | 62.24136 | 7.43369 | 32685 ft | 435 kts | 25° |
| 2026-04-26 10:41 | 62.26717 | 7.46752 | 33078 ft | 434 kts | 25° |
| 2026-04-26 10:42 | 62.29295 | 7.50134 | 33403 ft | 433 kts | 25° |
| 2026-04-26 10:42 | 62.31863 | 7.53511 | 33772 ft | 432 kts | 25° |
| 2026-04-26 10:42 | 62.34423 | 7.56887 | 34196 ft | 431 kts | 25° |
| 2026-04-26 10:42 | 62.36976 | 7.60255 | 34578 ft | 430 kts | 25° |
| 2026-04-26 10:43 | 62.39527 | 7.63634 | 34839 ft | 430 kts | 25° |
| 2026-04-26 10:43 | 62.42043 | 7.66975 | 35116 ft | 430 kts | 25° |
| 2026-04-26 10:43 | 62.44590 | 7.70356 | 35385 ft | 430 kts | 25° |
| 2026-04-26 10:43 | 62.47136 | 7.73744 | 35647 ft | 430 kts | 25° |
| 2026-04-26 10:44 | 62.49682 | 7.77139 | 35906 ft | 430 kts | 25° |
| 2026-04-26 10:44 | 62.52228 | 7.80540 | 36175 ft | 430 kts | 25° |
| 2026-04-26 10:44 | 62.54771 | 7.83949 | 36408 ft | 430 kts | 25° |
| 2026-04-26 10:44 | 62.57315 | 7.87363 | 36660 ft | 430 kts | 25° |
| 2026-04-26 10:45 | 62.59858 | 7.90781 | 36855 ft | 430 kts | 26° |
| 2026-04-26 10:45 | 62.62404 | 7.94210 | 37090 ft | 430 kts | 25° |
| 2026-04-26 10:45 | 62.64943 | 7.97645 | 37274 ft | 430 kts | 25° |
| 2026-04-26 10:45 | 62.67480 | 8.01087 | 37311 ft | 429 kts | 25° |
| 2026-04-26 10:46 | 62.72538 | 8.07996 | 37309 ft | 431 kts | 28° |
| 2026-04-26 10:46 | 62.77510 | 8.15262 | 37321 ft | 428 kts | 25° |
| 2026-04-26 10:47 | 62.82621 | 8.21944 | 37336 ft | 427 kts | 24° |
| 2026-04-26 10:47 | 62.87701 | 8.28644 | 37310 ft | 426 kts | 25° |
| 2026-04-26 10:48 | 62.92729 | 8.35548 | 37328 ft | 427 kts | 25° |
| 2026-04-26 10:48 | 62.97738 | 8.42551 | 37311 ft | 427 kts | 26° |
| 2026-04-26 10:49 | 63.02752 | 8.49568 | 37296 ft | 427 kts | 25° |
| 2026-04-26 10:49 | 63.07771 | 8.56579 | 37293 ft | 427 kts | 25° |
| 2026-04-26 10:50 | 63.11945 | 8.62434 | 37283 ft | 428 kts | 26° |
| 2026-04-26 10:50 | 63.17824 | 8.70717 | 37320 ft | 429 kts | 26° |
| 2026-04-26 10:51 | 63.25351 | 8.81367 | 37284 ft | 430 kts | 26° |
| 2026-04-26 10:52 | 63.30396 | 8.88550 | 37271 ft | 430 kts | 26° |
| 2026-04-26 10:52 | 63.35441 | 8.95757 | 37270 ft | 431 kts | 26° |
| 2026-04-26 10:53 | 63.40483 | 9.03006 | 37271 ft | 431 kts | 26° |
| 2026-04-26 10:53 | 63.45520 | 9.10276 | 37301 ft | 431 kts | 26° |
| 2026-04-26 10:54 | 63.53084 | 9.21243 | 37295 ft | 431 kts | 26° |
| 2026-04-26 10:54 | 63.58124 | 9.28560 | 37285 ft | 431 kts | 26° |
| 2026-04-26 10:55 | 63.63145 | 9.35905 | 37274 ft | 430 kts | 26° |
| 2026-04-26 10:55 | 63.68151 | 9.43291 | 37285 ft | 430 kts | 26° |
| 2026-04-26 10:56 | 63.73160 | 9.50697 | 37283 ft | 430 kts | 26° |
| 2026-04-26 10:56 | 63.78166 | 9.58111 | 37306 ft | 431 kts | 26° |
| 2026-04-26 10:57 | 63.83177 | 9.65568 | 37295 ft | 431 kts | 27° |
| 2026-04-26 10:57 | 63.88185 | 9.73042 | 37283 ft | 431 kts | 27° |
| 2026-04-26 10:58 | 63.93167 | 9.80515 | 37277 ft | 431 kts | 27° |
| 2026-04-26 10:58 | 63.98169 | 9.88064 | 37272 ft | 432 kts | 27° |
| 2026-04-26 10:59 | 64.03167 | 9.95647 | 37286 ft | 432 kts | 27° |
| 2026-04-26 10:59 | 64.08172 | 10.03273 | 37271 ft | 432 kts | 27° |
| 2026-04-26 11:00 | 64.13176 | 10.10930 | 37264 ft | 433 kts | 27° |
| 2026-04-26 11:00 | 64.18187 | 10.18601 | 37269 ft | 433 kts | 27° |
| 2026-04-26 11:01 | 64.23196 | 10.26311 | 37274 ft | 433 kts | 27° |
| 2026-04-26 11:01 | 64.28199 | 10.34062 | 37271 ft | 433 kts | 27° |
| 2026-04-26 11:02 | 64.33200 | 10.41839 | 37298 ft | 433 kts | 27° |
| 2026-04-26 11:02 | 64.38195 | 10.49648 | 37275 ft | 433 kts | 27° |
| 2026-04-26 11:03 | 64.43180 | 10.57474 | 37268 ft | 433 kts | 27° |
| 2026-04-26 11:03 | 64.48165 | 10.65334 | 37262 ft | 433 kts | 28° |
| 2026-04-26 11:04 | 64.53138 | 10.73227 | 37257 ft | 433 kts | 28° |
| 2026-04-26 11:04 | 64.58106 | 10.81136 | 37282 ft | 433 kts | 28° |
| 2026-04-26 11:05 | 64.63082 | 10.89089 | 37255 ft | 433 kts | 28° |
| 2026-04-26 11:05 | 64.68011 | 10.97010 | 37250 ft | 433 kts | 28° |
| 2026-04-26 11:06 | 64.72974 | 11.05013 | 37224 ft | 433 kts | 28° |
| 2026-04-26 11:06 | 64.77933 | 11.13036 | 37221 ft | 433 kts | 28° |
| 2026-04-26 11:07 | 64.82891 | 11.21112 | 37222 ft | 433 kts | 28° |
| 2026-04-26 11:07 | 64.87840 | 11.29199 | 37257 ft | 433 kts | 28° |
| 2026-04-26 11:08 | 64.92794 | 11.37314 | 37235 ft | 434 kts | 28° |
| 2026-04-26 11:08 | 64.97737 | 11.45469 | 37224 ft | 434 kts | 28° |
| 2026-04-26 11:09 | 65.02696 | 11.53688 | 37220 ft | 435 kts | 28° |
| 2026-04-26 11:09 | 65.07647 | 11.61936 | 37228 ft | 435 kts | 29° |
| 2026-04-26 11:10 | 65.12591 | 11.70211 | 37218 ft | 435 kts | 29° |
| 2026-04-26 11:10 | 65.17526 | 11.78514 | 37214 ft | 435 kts | 29° |
| 2026-04-26 11:11 | 65.22450 | 11.86839 | 37209 ft | 434 kts | 29° |
| 2026-04-26 11:11 | 65.27380 | 11.95197 | 37204 ft | 435 kts | 29° |
| 2026-04-26 11:12 | 65.32306 | 12.03593 | 37204 ft | 435 kts | 29° |
| 2026-04-26 11:12 | 65.37232 | 12.12018 | 37180 ft | 435 kts | 29° |
| 2026-04-26 11:13 | 65.42147 | 12.20472 | 37205 ft | 435 kts | 29° |
| 2026-04-26 11:13 | 65.47059 | 12.28966 | 37216 ft | 434 kts | 29° |
| 2026-04-26 11:14 | 65.51959 | 12.37477 | 37207 ft | 434 kts | 29° |
| 2026-04-26 11:14 | 65.56031 | 12.44571 | 37196 ft | 435 kts | 29° |
| 2026-04-26 11:15 | 65.61727 | 12.54558 | 37180 ft | 435 kts | 29° |
| 2026-04-26 11:15 | 65.66658 | 12.63253 | 37163 ft | 436 kts | 29° |
| 2026-04-26 11:16 | 65.71557 | 12.71918 | 37158 ft | 436 kts | 29° |
| 2026-04-26 11:16 | 65.76453 | 12.80614 | 37184 ft | 436 kts | 30° |
| 2026-04-26 11:17 | 65.81344 | 12.89358 | 37169 ft | 436 kts | 30° |
| 2026-04-26 11:17 | 65.86220 | 12.98119 | 36893 ft | 434 kts | 30° |
| 2026-04-26 11:18 | 65.88644 | 13.02496 | 36279 ft | 433 kts | 29° |
| 2026-04-26 11:18 | 65.91056 | 13.06866 | 35672 ft | 430 kts | 28° |
| 2026-04-26 11:18 | 65.93444 | 13.11204 | 34912 ft | 426 kts | 28° |
| 2026-04-26 11:18 | 65.95820 | 13.15519 | 34083 ft | 423 kts | 27° |
| 2026-04-26 11:19 | 65.98171 | 13.19797 | 33094 ft | 420 kts | 27° |
| 2026-04-26 11:19 | 66.00526 | 13.24080 | 32167 ft | 422 kts | 26° |
| 2026-04-26 11:19 | 66.02883 | 13.28369 | 31281 ft | 422 kts | 26° |
| 2026-04-26 11:19 | 66.05237 | 13.32668 | 30404 ft | 421 kts | 26° |
| 2026-04-26 11:20 | 66.07580 | 13.36970 | 29330 ft | 421 kts | 26° |
| 2026-04-26 11:20 | 66.09137 | 13.39830 | 28571 ft | 421 kts | 26° |
| 2026-04-26 11:20 | 66.12263 | 13.45603 | 27471 ft | 416 kts | 26° |
| 2026-04-26 11:20 | 66.14528 | 13.49820 | 26737 ft | 411 kts | 26° |
| 2026-04-26 11:21 | 66.16797 | 13.54052 | 26072 ft | 406 kts | 26° |
| 2026-04-26 11:21 | 66.19041 | 13.58238 | 25374 ft | 402 kts | 27° |
| 2026-04-26 11:21 | 66.21289 | 13.62433 | 24737 ft | 397 kts | 27° |
| 2026-04-26 11:21 | 66.23451 | 13.66479 | 24115 ft | 393 kts | 27° |
| 2026-04-26 11:22 | 66.25621 | 13.70541 | 23532 ft | 390 kts | 27° |
| 2026-04-26 11:22 | 66.27782 | 13.74584 | 22961 ft | 388 kts | 27° |
| 2026-04-26 11:22 | 66.29988 | 13.78300 | 22438 ft | 377 kts | 21° |
| 2026-04-26 11:22 | 66.32260 | 13.81525 | 21888 ft | 375 kts | 21° |
| 2026-04-26 11:23 | 66.34518 | 13.84731 | 21324 ft | 372 kts | 21° |
| 2026-04-26 11:23 | 66.36755 | 13.87920 | 20741 ft | 370 kts | 22° |
| 2026-04-26 11:23 | 66.38969 | 13.91100 | 20168 ft | 365 kts | 22° |
| 2026-04-26 11:23 | 66.41158 | 13.94260 | 19605 ft | 361 kts | 22° |
| 2026-04-26 11:24 | 66.43323 | 13.97388 | 19051 ft | 357 kts | 22° |
| 2026-04-26 11:24 | 66.44763 | 13.99473 | 18676 ft | 353 kts | 23° |
| 2026-04-26 11:24 | 66.46880 | 14.02543 | 18109 ft | 349 kts | 23° |
| 2026-04-26 11:24 | 66.49650 | 14.06571 | 17257 ft | 347 kts | 24° |
| 2026-04-26 11:25 | 66.51056 | 14.08619 | 16854 ft | 346 kts | 24° |
| 2026-04-26 11:25 | 66.53135 | 14.11649 | 16273 ft | 344 kts | 25° |
| 2026-04-26 11:25 | 66.55203 | 14.14666 | 15673 ft | 343 kts | 25° |
| 2026-04-26 11:25 | 66.57269 | 14.17677 | 15095 ft | 342 kts | 26° |
| 2026-04-26 11:26 | 66.59303 | 14.20653 | 14892 ft | 332 kts | 26° |
| 2026-04-26 11:26 | 66.61250 | 14.23515 | 14498 ft | 320 kts | 27° |
| 2026-04-26 11:26 | 66.63164 | 14.26327 | 13887 ft | 318 kts | 27° |
| 2026-04-26 11:26 | 66.65072 | 14.29133 | 13403 ft | 317 kts | 27° |
| 2026-04-26 11:27 | 66.66965 | 14.31934 | 13020 ft | 312 kts | 27° |
| 2026-04-26 11:27 | 66.68780 | 14.34633 | 12804 ft | 295 kts | 27° |
| 2026-04-26 11:27 | 66.70527 | 14.37203 | 12322 ft | 287 kts | 25° |
| 2026-04-26 11:27 | 66.72317 | 14.39352 | 11730 ft | 283 kts | 21° |
| 2026-04-26 11:28 | 66.74098 | 14.41419 | 11166 ft | 281 kts | 21° |
| 2026-04-26 11:28 | 66.75848 | 14.43453 | 10922 ft | 277 kts | 21° |
| 2026-04-26 11:28 | 66.77586 | 14.45488 | 10569 ft | 268 kts | 21° |
| 2026-04-26 11:28 | 66.79277 | 14.47478 | 10183 ft | 267 kts | 21° |
| 2026-04-26 11:29 | 66.80958 | 14.49464 | 9841 ft | 265 kts | 21° |
| 2026-04-26 11:29 | 66.82627 | 14.51439 | 9397 ft | 264 kts | 21° |
| 2026-04-26 11:29 | 66.84265 | 14.53380 | 8979 ft | 263 kts | 21° |
| 2026-04-26 11:29 | 66.85922 | 14.55347 | 8575 ft | 263 kts | 21° |
| 2026-04-26 11:30 | 66.87593 | 14.57351 | 8148 ft | 262 kts | 22° |
| 2026-04-26 11:30 | 66.88678 | 14.58662 | 7868 ft | 260 kts | 22° |
| 2026-04-26 11:30 | 66.90833 | 14.61283 | 7294 ft | 259 kts | 22° |
| 2026-04-26 11:30 | 66.92449 | 14.63257 | 7030 ft | 254 kts | 22° |
| 2026-04-26 11:31 | 66.94052 | 14.65208 | 7011 ft | 257 kts | 22° |
| 2026-04-26 11:31 | 66.95672 | 14.67178 | 7011 ft | 258 kts | 22° |
| 2026-04-26 11:31 | 66.97291 | 14.69151 | 7011 ft | 258 kts | 22° |
| 2026-04-26 11:31 | 66.98906 | 14.71127 | 7010 ft | 254 kts | 22° |
| 2026-04-26 11:32 | 67.00470 | 14.73049 | 7002 ft | 248 kts | 22° |
| 2026-04-26 11:32 | 67.02024 | 14.74954 | 7007 ft | 247 kts | 22° |
| 2026-04-26 11:32 | 67.03574 | 14.76854 | 7004 ft | 245 kts | 22° |
| 2026-04-26 11:32 | 67.05079 | 14.78703 | 7005 ft | 238 kts | 22° |
| 2026-04-26 11:33 | 67.06565 | 14.80537 | 7008 ft | 237 kts | 22° |
| 2026-04-26 11:33 | 67.08047 | 14.82367 | 7006 ft | 237 kts | 22° |
| 2026-04-26 11:33 | 67.09528 | 14.84190 | 7011 ft | 236 kts | 22° |
| 2026-04-26 11:33 | 67.11004 | 14.86008 | 6761 ft | 234 kts | 22° |
| 2026-04-26 11:34 | 67.12470 | 14.87816 | 6406 ft | 234 kts | 22° |
| 2026-04-26 11:34 | 67.13934 | 14.89627 | 6051 ft | 233 kts | 22° |
| 2026-04-26 11:34 | 67.15390 | 14.91435 | 5688 ft | 232 kts | 22° |
| 2026-04-26 11:34 | 67.16880 | 14.92911 | 5351 ft | 226 kts | 8° |
| 2026-04-26 11:35 | 67.18439 | 14.93192 | 5210 ft | 224 kts | 353° |
| 2026-04-26 11:35 | 67.19922 | 14.92329 | 5022 ft | 214 kts | 337° |
| 2026-04-26 11:35 | 67.21223 | 14.90691 | 4818 ft | 203 kts | 332° |
| 2026-04-26 11:35 | 67.22472 | 14.89045 | 4438 ft | 200 kts | 332° |
| 2026-04-26 11:36 | 67.23696 | 14.87439 | 4008 ft | 199 kts | 332° |
| 2026-04-26 11:36 | 67.24948 | 14.85800 | 3628 ft | 199 kts | 331° |
| 2026-04-26 11:36 | 67.26072 | 14.83804 | 3405 ft | 193 kts | 314° |
| 2026-04-26 11:36 | 67.26828 | 14.81028 | 3249 ft | 187 kts | 295° |
| 2026-04-26 11:37 | 67.27167 | 14.77803 | 3072 ft | 188 kts | 277° |
| 2026-04-26 11:37 | 67.27193 | 14.74410 | 2976 ft | 186 kts | 275° |
| 2026-04-26 11:37 | 67.27228 | 14.71139 | 2895 ft | 179 kts | 275° |
| 2026-04-26 11:37 | 67.27246 | 14.67958 | 2620 ft | 174 kts | 274° |
| 2026-04-26 11:38 | 67.27255 | 14.64910 | 2354 ft | 165 kts | 277° |
| 2026-04-26 11:38 | 67.27261 | 14.62005 | 2101 ft | 157 kts | 274° |
| 2026-04-26 11:38 | 67.27265 | 14.59330 | 1865 ft | 145 kts | 275° |
| 2026-04-26 11:38 | 67.27268 | 14.56834 | 1623 ft | 133 kts | 275° |
| 2026-04-26 11:39 | 67.27273 | 14.54500 | 1411 ft | 128 kts | 276° |
| 2026-04-26 11:39 | 67.27311 | 14.52198 | 1205 ft | 136 kts | 279° |
| 2026-04-26 11:39 | 67.27407 | 14.49657 | 1034 ft | 134 kts | 279° |
| 2026-04-26 11:39 | 67.27495 | 14.47330 | 776 ft | 128 kts | 280° |
| 2026-04-26 11:40 | 67.27536 | 14.45069 | 542 ft | 125 kts | 272° |
| 2026-04-26 11:40 | 67.27427 | 14.42815 | 371 ft | 129 kts | 264° |
| 2026-04-26 11:40 | 67.27246 | 14.40597 | 168 ft | 124 kts | 264° |
| 2026-04-26 11:40 | 67.27081 | 14.38466 | 48 ft | 112 kts | 261° |
| 2026-04-26 11:41 | 67.26954 | 14.36894 | 43 ft | 65 kts | 257° |
| 2026-04-26 11:42 | 67.26985 | 14.35919 | 41 ft | 0 kts | 346° |
| 2026-04-26 11:43 | 67.26989 | 14.35917 | 41 ft | 2 kts | 346° |
| 2026-04-26 11:43 | 67.27011 | 14.35912 | 40 ft | 4 kts | 5° |
| 2026-04-26 11:43 | 67.27033 | 14.35951 | 39 ft | 3 kts | 70° |
| 2026-04-26 11:44 | 67.27034 | 14.35989 | 41 ft | 1 kts | 89° |
| 2026-04-26 11:44 | 67.27032 | 14.36053 | 41 ft | 7 kts | 95° |
| 2026-04-26 11:44 | 67.27032 | 14.36249 | 42 ft | 14 kts | 83° |
| 2026-04-26 11:44 | 67.27089 | 14.36437 | 43 ft | 14 kts | 357° |
| 2026-04-26 11:45 | 67.27152 | 14.36489 | 43 ft | 9 kts | 49° |
| 2026-04-26 11:45 | 67.27178 | 14.36622 | 41 ft | 5 kts | 68° |
| 2026-04-26 11:45 | 67.27181 | 14.36646 | 43 ft | 0 kts | 69° |